sensor_id;sensor_type;location;lat;lon;timestamp;P1;durP1;ratioP1;P2;durP2;ratioP2
76121;SDS011;70471;53.200;6.080;2023-10-09T00:02:22;4.35;;;1.20;;
76121;SDS011;70471;53.200;6.080;2023-10-09T00:07:14;2.30;;;1.27;;
76121;SDS011;70471;53.200;6.080;2023-10-09T00:12:06;2.65;;;1.35;;
76121;SDS011;70471;53.200;6.080;2023-10-09T00:17:00;3.33;;;1.50;;
76121;SDS011;70471;53.200;6.080;2023-10-09T00:22:08;3.88;;;1.63;;
76121;SDS011;70471;53.200;6.080;2023-10-09T00:27:15;4.25;;;2.28;;
76121;SDS011;70471;53.200;6.080;2023-10-09T00:32:09;3.60;;;1.27;;
76121;SDS011;70471;53.200;6.080;2023-10-09T00:37:18;6.57;;;1.98;;
76121;SDS011;70471;53.200;6.080;2023-10-09T00:42:13;3.22;;;1.52;;
76121;SDS011;70471;53.200;6.080;2023-10-09T00:47:12;4.10;;;2.15;;
76121;SDS011;70471;53.200;6.080;2023-10-09T00:52:16;5.20;;;2.20;;
76121;SDS011;70471;53.200;6.080;2023-10-09T00:57:12;5.70;;;2.22;;
76121;SDS011;70471;53.200;6.080;2023-10-09T01:02:06;5.53;;;2.40;;
76121;SDS011;70471;53.200;6.080;2023-10-09T01:06:57;4.78;;;2.10;;
76121;SDS011;70471;53.200;6.080;2023-10-09T01:12:06;7.88;;;3.10;;
76121;SDS011;70471;53.200;6.080;2023-10-09T01:17:06;4.00;;;2.08;;
76121;SDS011;70471;53.200;6.080;2023-10-09T01:21:58;5.00;;;2.38;;
76121;SDS011;70471;53.200;6.080;2023-10-09T01:26:55;5.97;;;2.53;;
76121;SDS011;70471;53.200;6.080;2023-10-09T01:31:50;5.68;;;2.58;;
76121;SDS011;70471;53.200;6.080;2023-10-09T01:36:45;6.18;;;2.97;;
76121;SDS011;70471;53.200;6.080;2023-10-09T01:41:39;10.00;;;3.65;;
76121;SDS011;70471;53.200;6.080;2023-10-09T01:46:38;6.75;;;3.15;;
76121;SDS011;70471;53.200;6.080;2023-10-09T01:51:29;8.88;;;3.95;;
76121;SDS011;70471;53.200;6.080;2023-10-09T01:56:24;6.78;;;3.85;;
76121;SDS011;70471;53.200;6.080;2023-10-09T02:01:16;9.68;;;4.15;;
76121;SDS011;70471;53.200;6.080;2023-10-09T02:06:09;7.95;;;3.53;;
76121;SDS011;70471;53.200;6.080;2023-10-09T02:11:18;10.18;;;3.60;;
76121;SDS011;70471;53.200;6.080;2023-10-09T02:16:25;10.07;;;4.10;;
76121;SDS011;70471;53.200;6.080;2023-10-09T02:21:20;9.93;;;4.18;;
76121;SDS011;70471;53.200;6.080;2023-10-09T02:26:23;7.97;;;4.43;;
76121;SDS011;70471;53.200;6.080;2023-10-09T02:31:16;6.28;;;3.33;;
76121;SDS011;70471;53.200;6.080;2023-10-09T02:36:09;8.13;;;4.22;;
76121;SDS011;70471;53.200;6.080;2023-10-09T02:41:04;7.85;;;4.05;;
76121;SDS011;70471;53.200;6.080;2023-10-09T02:46:10;7.53;;;3.67;;
76121;SDS011;70471;53.200;6.080;2023-10-09T02:51:04;9.30;;;4.32;;
76121;SDS011;70471;53.200;6.080;2023-10-09T02:55:57;6.35;;;4.05;;
76121;SDS011;70471;53.200;6.080;2023-10-09T03:01:03;9.32;;;4.57;;
76121;SDS011;70471;53.200;6.080;2023-10-09T03:06:00;9.60;;;4.78;;
76121;SDS011;70471;53.200;6.080;2023-10-09T03:11:00;11.20;;;6.32;;
76121;SDS011;70471;53.200;6.080;2023-10-09T03:15:52;10.82;;;5.95;;
76121;SDS011;70471;53.200;6.080;2023-10-09T03:20:44;13.63;;;6.70;;
76121;SDS011;70471;53.200;6.080;2023-10-09T03:25:37;15.90;;;6.90;;
76121;SDS011;70471;53.200;6.080;2023-10-09T03:30:29;12.57;;;7.38;;
76121;SDS011;70471;53.200;6.080;2023-10-09T03:35:22;20.20;;;8.45;;
76121;SDS011;70471;53.200;6.080;2023-10-09T03:40:19;12.30;;;6.30;;
76121;SDS011;70471;53.200;6.080;2023-10-09T03:45:11;13.93;;;7.47;;
76121;SDS011;70471;53.200;6.080;2023-10-09T03:50:14;14.98;;;8.13;;
76121;SDS011;70471;53.200;6.080;2023-10-09T03:55:16;12.98;;;6.88;;
76121;SDS011;70471;53.200;6.080;2023-10-09T04:00:10;16.75;;;6.10;;
76121;SDS011;70471;53.200;6.080;2023-10-09T04:05:04;16.88;;;6.75;;
76121;SDS011;70471;53.200;6.080;2023-10-09T04:09:57;13.07;;;5.68;;
76121;SDS011;70471;53.200;6.080;2023-10-09T04:15:15;10.32;;;6.15;;
76121;SDS011;70471;53.200;6.080;2023-10-09T04:20:07;15.65;;;5.60;;
76121;SDS011;70471;53.200;6.080;2023-10-09T04:25:17;9.98;;;5.18;;
76121;SDS011;70471;53.200;6.080;2023-10-09T04:30:16;11.15;;;5.47;;
76121;SDS011;70471;53.200;6.080;2023-10-09T04:35:08;7.82;;;4.65;;
76121;SDS011;70471;53.200;6.080;2023-10-09T04:40:13;13.18;;;4.72;;
76121;SDS011;70471;53.200;6.080;2023-10-09T04:45:26;7.50;;;3.75;;
76121;SDS011;70471;53.200;6.080;2023-10-09T04:50:31;9.80;;;4.20;;
76121;SDS011;70471;53.200;6.080;2023-10-09T04:55:58;9.35;;;4.35;;
76121;SDS011;70471;53.200;6.080;2023-10-09T05:00:56;9.13;;;4.65;;
76121;SDS011;70471;53.200;6.080;2023-10-09T05:06:04;7.68;;;4.57;;
76121;SDS011;70471;53.200;6.080;2023-10-09T05:11:10;8.20;;;4.07;;
76121;SDS011;70471;53.200;6.080;2023-10-09T05:16:25;6.80;;;3.63;;
76121;SDS011;70471;53.200;6.080;2023-10-09T05:21:19;10.18;;;4.07;;
76121;SDS011;70471;53.200;6.080;2023-10-09T05:26:25;7.03;;;3.63;;
76121;SDS011;70471;53.200;6.080;2023-10-09T05:31:28;8.00;;;3.90;;
76121;SDS011;70471;53.200;6.080;2023-10-09T05:36:34;7.18;;;3.17;;
76121;SDS011;70471;53.200;6.080;2023-10-09T05:41:26;8.68;;;4.50;;
76121;SDS011;70471;53.200;6.080;2023-10-09T05:46:39;7.53;;;3.75;;
76121;SDS011;70471;53.200;6.080;2023-10-09T05:51:49;8.43;;;3.50;;
76121;SDS011;70471;53.200;6.080;2023-10-09T05:57:04;10.63;;;3.92;;
76121;SDS011;70471;53.200;6.080;2023-10-09T06:02:14;8.38;;;3.00;;
76121;SDS011;70471;53.200;6.080;2023-10-09T06:07:38;11.15;;;3.72;;
76121;SDS011;70471;53.200;6.080;2023-10-09T06:12:51;11.77;;;4.25;;
76121;SDS011;70471;53.200;6.080;2023-10-09T06:17:55;9.65;;;3.22;;
76121;SDS011;70471;53.200;6.080;2023-10-09T06:23:07;9.88;;;4.10;;
76121;SDS011;70471;53.200;6.080;2023-10-09T06:28:06;11.95;;;3.75;;
76121;SDS011;70471;53.200;6.080;2023-10-09T06:32:59;10.10;;;3.47;;
76121;SDS011;70471;53.200;6.080;2023-10-09T06:38:09;11.15;;;3.50;;
76121;SDS011;70471;53.200;6.080;2023-10-09T06:43:13;4.60;;;2.47;;
76121;SDS011;70471;53.200;6.080;2023-10-09T06:48:18;4.25;;;2.28;;
76121;SDS011;70471;53.200;6.080;2023-10-09T06:53:27;4.95;;;2.55;;
76121;SDS011;70471;53.200;6.080;2023-10-09T06:58:39;4.05;;;2.40;;
76121;SDS011;70471;53.200;6.080;2023-10-09T07:03:34;4.72;;;2.20;;
76121;SDS011;70471;53.200;6.080;2023-10-09T07:08:26;3.72;;;1.92;;
76121;SDS011;70471;53.200;6.080;2023-10-09T07:13:27;3.22;;;1.63;;
76121;SDS011;70471;53.200;6.080;2023-10-09T07:18:18;3.55;;;1.35;;
76121;SDS011;70471;53.200;6.080;2023-10-09T07:23:14;2.15;;;1.30;;
76121;SDS011;70471;53.200;6.080;2023-10-09T07:28:06;3.63;;;1.83;;
76121;SDS011;70471;53.200;6.080;2023-10-09T07:33:08;3.90;;;1.90;;
76121;SDS011;70471;53.200;6.080;2023-10-09T07:38:07;3.65;;;1.63;;
76121;SDS011;70471;53.200;6.080;2023-10-09T07:47:55;4.00;;;1.70;;
76121;SDS011;70471;53.200;6.080;2023-10-09T07:52:54;3.10;;;1.63;;
76121;SDS011;70471;53.200;6.080;2023-10-09T07:58:06;3.50;;;1.60;;
76121;SDS011;70471;53.200;6.080;2023-10-09T08:03:01;3.30;;;1.60;;
76121;SDS011;70471;53.200;6.080;2023-10-09T08:08:00;3.92;;;1.80;;
76121;SDS011;70471;53.200;6.080;2023-10-09T08:13:07;4.03;;;1.48;;
76121;SDS011;70471;53.200;6.080;2023-10-09T08:18:24;4.38;;;1.63;;
76121;SDS011;70471;53.200;6.080;2023-10-09T08:23:19;3.15;;;1.63;;
76121;SDS011;70471;53.200;6.080;2023-10-09T08:28:20;4.20;;;1.73;;
76121;SDS011;70471;53.200;6.080;2023-10-09T08:33:29;4.72;;;1.70;;
76121;SDS011;70471;53.200;6.080;2023-10-09T08:38:34;3.28;;;1.55;;
76121;SDS011;70471;53.200;6.080;2023-10-09T08:43:27;1.70;;;1.50;;
76121;SDS011;70471;53.200;6.080;2023-10-09T08:48:22;2.95;;;1.65;;
76121;SDS011;70471;53.200;6.080;2023-10-09T08:53:17;2.80;;;1.60;;
76121;SDS011;70471;53.200;6.080;2023-10-09T08:58:09;3.30;;;1.70;;
76121;SDS011;70471;53.200;6.080;2023-10-09T09:03:08;3.00;;;1.63;;
76121;SDS011;70471;53.200;6.080;2023-10-09T09:08:00;3.67;;;1.75;;
76121;SDS011;70471;53.200;6.080;2023-10-09T09:12:52;2.13;;;1.33;;
76121;SDS011;70471;53.200;6.080;2023-10-09T09:17:50;2.38;;;1.50;;
76121;SDS011;70471;53.200;6.080;2023-10-09T09:22:52;3.60;;;1.60;;
76121;SDS011;70471;53.200;6.080;2023-10-09T09:27:46;3.38;;;1.55;;
76121;SDS011;70471;53.200;6.080;2023-10-09T09:32:42;3.85;;;1.45;;
76121;SDS011;70471;53.200;6.080;2023-10-09T09:37:55;2.92;;;1.60;;
76121;SDS011;70471;53.200;6.080;2023-10-09T09:42:53;2.47;;;1.27;;
76121;SDS011;70471;53.200;6.080;2023-10-09T09:47:54;2.13;;;1.30;;
76121;SDS011;70471;53.200;6.080;2023-10-09T09:52:48;3.03;;;1.50;;
76121;SDS011;70471;53.200;6.080;2023-10-09T09:57:45;2.53;;;1.33;;
76121;SDS011;70471;53.200;6.080;2023-10-09T10:02:41;1.60;;;1.02;;
76121;SDS011;70471;53.200;6.080;2023-10-09T10:07:34;2.97;;;1.20;;
76121;SDS011;70471;53.200;6.080;2023-10-09T10:12:50;1.90;;;1.30;;
76121;SDS011;70471;53.200;6.080;2023-10-09T10:18:06;1.52;;;1.20;;
76121;SDS011;70471;53.200;6.080;2023-10-09T10:28:19;2.40;;;1.20;;
76121;SDS011;70471;53.200;6.080;2023-10-09T10:33:26;2.45;;;1.30;;
76121;SDS011;70471;53.200;6.080;2023-10-09T10:38:28;3.00;;;1.33;;
76121;SDS011;70471;53.200;6.080;2023-10-09T10:43:36;2.67;;;1.52;;
76121;SDS011;70471;53.200;6.080;2023-10-09T10:48:37;2.35;;;1.40;;
76121;SDS011;70471;53.200;6.080;2023-10-09T10:53:29;3.92;;;1.63;;
76121;SDS011;70471;53.200;6.080;2023-10-09T10:58:25;2.75;;;1.33;;
76121;SDS011;70471;53.200;6.080;2023-10-09T11:03:26;2.25;;;1.35;;
76121;SDS011;70471;53.200;6.080;2023-10-09T11:08:25;3.05;;;1.50;;
76121;SDS011;70471;53.200;6.080;2023-10-09T11:13:22;4.07;;;1.73;;
76121;SDS011;70471;53.200;6.080;2023-10-09T11:18:23;5.10;;;1.55;;
76121;SDS011;70471;53.200;6.080;2023-10-09T11:23:18;3.67;;;1.80;;
76121;SDS011;70471;53.200;6.080;2023-10-09T11:28:19;3.08;;;1.60;;
76121;SDS011;70471;53.200;6.080;2023-10-09T11:33:42;4.70;;;1.38;;
76121;SDS011;70471;53.200;6.080;2023-10-09T11:38:36;2.65;;;1.77;;
76121;SDS011;70471;53.200;6.080;2023-10-09T11:43:28;4.35;;;1.52;;
76121;SDS011;70471;53.200;6.080;2023-10-09T11:48:41;3.65;;;1.40;;
76121;SDS011;70471;53.200;6.080;2023-10-09T11:53:58;2.88;;;1.10;;
76121;SDS011;70471;53.200;6.080;2023-10-09T11:58:49;2.35;;;1.00;;
76121;SDS011;70471;53.200;6.080;2023-10-09T12:08:33;2.38;;;1.00;;
76121;SDS011;70471;53.200;6.080;2023-10-09T12:13:26;2.35;;;1.20;;
76121;SDS011;70471;53.200;6.080;2023-10-09T12:18:19;2.70;;;1.10;;
76121;SDS011;70471;53.200;6.080;2023-10-09T12:23:11;2.95;;;1.20;;
76121;SDS011;70471;53.200;6.080;2023-10-09T12:28:05;4.32;;;1.42;;
76121;SDS011;70471;53.200;6.080;2023-10-09T12:33:03;3.25;;;1.25;;
76121;SDS011;70471;53.200;6.080;2023-10-09T12:37:57;1.88;;;1.10;;
76121;SDS011;70471;53.200;6.080;2023-10-09T12:42:48;1.75;;;1.00;;
76121;SDS011;70471;53.200;6.080;2023-10-09T12:47:40;5.10;;;1.20;;
76121;SDS011;70471;53.200;6.080;2023-10-09T12:52:33;2.15;;;0.70;;
76121;SDS011;70471;53.200;6.080;2023-10-09T12:57:27;2.67;;;0.95;;
76121;SDS011;70471;53.200;6.080;2023-10-09T13:07:19;2.55;;;0.80;;
76121;SDS011;70471;53.200;6.080;2023-10-09T13:12:13;3.53;;;1.00;;
76121;SDS011;70471;53.200;6.080;2023-10-09T13:17:08;1.67;;;0.95;;
76121;SDS011;70471;53.200;6.080;2023-10-09T13:22:00;1.20;;;0.68;;
76121;SDS011;70471;53.200;6.080;2023-10-09T13:26:53;2.97;;;0.90;;
76121;SDS011;70471;53.200;6.080;2023-10-09T13:31:50;2.00;;;1.08;;
76121;SDS011;70471;53.200;6.080;2023-10-09T13:36:47;1.83;;;0.80;;
76121;SDS011;70471;53.200;6.080;2023-10-09T13:41:43;1.75;;;0.80;;
76121;SDS011;70471;53.200;6.080;2023-10-09T13:46:34;1.38;;;0.70;;
76121;SDS011;70471;53.200;6.080;2023-10-09T13:51:32;1.75;;;0.82;;
76121;SDS011;70471;53.200;6.080;2023-10-09T13:56:24;2.03;;;0.60;;
76121;SDS011;70471;53.200;6.080;2023-10-09T14:01:17;1.95;;;0.95;;
76121;SDS011;70471;53.200;6.080;2023-10-09T14:06:17;1.90;;;0.88;;
76121;SDS011;70471;53.200;6.080;2023-10-09T14:16:12;2.58;;;0.65;;
76121;SDS011;70471;53.200;6.080;2023-10-09T14:21:13;1.45;;;0.80;;
76121;SDS011;70471;53.200;6.080;2023-10-09T14:26:06;1.98;;;0.68;;
76121;SDS011;70471;53.200;6.080;2023-10-09T14:30:59;1.48;;;1.10;;
76121;SDS011;70471;53.200;6.080;2023-10-09T14:35:54;1.10;;;0.80;;
76121;SDS011;70471;53.200;6.080;2023-10-09T14:40:46;1.52;;;0.82;;
76121;SDS011;70471;53.200;6.080;2023-10-09T14:45:38;1.50;;;0.75;;
76121;SDS011;70471;53.200;6.080;2023-10-09T14:50:30;1.00;;;0.70;;
76121;SDS011;70471;53.200;6.080;2023-10-09T14:55:22;1.77;;;0.82;;
76121;SDS011;70471;53.200;6.080;2023-10-09T15:00:18;1.65;;;0.60;;
76121;SDS011;70471;53.200;6.080;2023-10-09T15:05:13;1.08;;;0.50;;
76121;SDS011;70471;53.200;6.080;2023-10-09T15:10:08;1.30;;;0.70;;
76121;SDS011;70471;53.200;6.080;2023-10-09T15:15:00;0.75;;;0.60;;
76121;SDS011;70471;53.200;6.080;2023-10-09T15:19:51;1.40;;;0.68;;
76121;SDS011;70471;53.200;6.080;2023-10-09T15:24:46;1.13;;;0.60;;
76121;SDS011;70471;53.200;6.080;2023-10-09T15:29:40;2.17;;;0.80;;
76121;SDS011;70471;53.200;6.080;2023-10-09T15:34:34;1.05;;;0.60;;
76121;SDS011;70471;53.200;6.080;2023-10-09T15:39:25;0.47;;;0.40;;
76121;SDS011;70471;53.200;6.080;2023-10-09T15:49:10;1.23;;;0.55;;
76121;SDS011;70471;53.200;6.080;2023-10-09T15:54:02;0.80;;;0.60;;
76121;SDS011;70471;53.200;6.080;2023-10-09T16:03:46;1.58;;;0.55;;
76121;SDS011;70471;53.200;6.080;2023-10-09T16:08:40;0.85;;;0.55;;
76121;SDS011;70471;53.200;6.080;2023-10-09T16:13:33;2.45;;;0.50;;
76121;SDS011;70471;53.200;6.080;2023-10-09T16:18:25;1.00;;;0.75;;
76121;SDS011;70471;53.200;6.080;2023-10-09T16:23:17;0.98;;;0.50;;
76121;SDS011;70471;53.200;6.080;2023-10-09T16:28:11;0.75;;;0.35;;
76121;SDS011;70471;53.200;6.080;2023-10-09T16:33:05;0.90;;;0.50;;
76121;SDS011;70471;53.200;6.080;2023-10-09T16:37:58;0.60;;;0.40;;
76121;SDS011;70471;53.200;6.080;2023-10-09T16:42:55;1.70;;;0.60;;
76121;SDS011;70471;53.200;6.080;2023-10-09T16:52:41;2.22;;;1.05;;
76121;SDS011;70471;53.200;6.080;2023-10-09T16:57:33;1.23;;;0.60;;
76121;SDS011;70471;53.200;6.080;2023-10-09T17:02:25;0.82;;;0.47;;
76121;SDS011;70471;53.200;6.080;2023-10-09T17:07:18;0.52;;;0.45;;
76121;SDS011;70471;53.200;6.080;2023-10-09T17:12:13;1.30;;;0.60;;
76121;SDS011;70471;53.200;6.080;2023-10-09T17:17:07;0.82;;;0.52;;
76121;SDS011;70471;53.200;6.080;2023-10-09T17:21:58;0.63;;;0.38;;
76121;SDS011;70471;53.200;6.080;2023-10-09T17:27:02;1.60;;;0.50;;
76121;SDS011;70471;53.200;6.080;2023-10-09T17:31:56;0.85;;;0.40;;
76121;SDS011;70471;53.200;6.080;2023-10-09T17:36:48;1.40;;;0.75;;
76121;SDS011;70471;53.200;6.080;2023-10-09T17:41:39;0.93;;;0.40;;
76121;SDS011;70471;53.200;6.080;2023-10-09T17:46:32;0.63;;;0.50;;
76121;SDS011;70471;53.200;6.080;2023-10-09T17:51:23;1.10;;;0.50;;
76121;SDS011;70471;53.200;6.080;2023-10-09T17:56:16;1.13;;;0.60;;
76121;SDS011;70471;53.200;6.080;2023-10-09T18:01:08;2.08;;;1.02;;
76121;SDS011;70471;53.200;6.080;2023-10-09T18:06:01;0.60;;;0.43;;
76121;SDS011;70471;53.200;6.080;2023-10-09T18:10:54;2.20;;;0.60;;
76121;SDS011;70471;53.200;6.080;2023-10-09T18:15:46;1.25;;;0.45;;
76121;SDS011;70471;53.200;6.080;2023-10-09T18:20:40;1.08;;;0.93;;
76121;SDS011;70471;53.200;6.080;2023-10-09T18:25:33;0.93;;;0.60;;
76121;SDS011;70471;53.200;6.080;2023-10-09T18:30:25;1.42;;;0.60;;
76121;SDS011;70471;53.200;6.080;2023-10-09T18:35:17;1.45;;;0.38;;
76121;SDS011;70471;53.200;6.080;2023-10-09T18:40:09;1.35;;;0.52;;
76121;SDS011;70471;53.200;6.080;2023-10-09T18:45:04;1.15;;;0.55;;
76121;SDS011;70471;53.200;6.080;2023-10-09T18:49:58;0.68;;;0.45;;
76121;SDS011;70471;53.200;6.080;2023-10-09T18:54:50;0.90;;;0.45;;
76121;SDS011;70471;53.200;6.080;2023-10-09T19:04:34;1.02;;;0.38;;
76121;SDS011;70471;53.200;6.080;2023-10-09T19:09:26;0.43;;;0.40;;
76121;SDS011;70471;53.200;6.080;2023-10-09T19:14:17;0.65;;;0.60;;
76121;SDS011;70471;53.200;6.080;2023-10-09T19:19:09;1.45;;;0.55;;
76121;SDS011;70471;53.200;6.080;2023-10-09T19:24:04;1.40;;;0.68;;
76121;SDS011;70471;53.200;6.080;2023-10-09T19:29:01;1.20;;;0.57;;
76121;SDS011;70471;53.200;6.080;2023-10-09T19:38:45;1.42;;;0.50;;
76121;SDS011;70471;53.200;6.080;2023-10-09T19:43:41;0.90;;;0.55;;
76121;SDS011;70471;53.200;6.080;2023-10-09T19:48:34;1.45;;;0.60;;
76121;SDS011;70471;53.200;6.080;2023-10-09T19:53:26;1.33;;;0.60;;
76121;SDS011;70471;53.200;6.080;2023-10-09T19:58:17;1.30;;;0.52;;
76121;SDS011;70471;53.200;6.080;2023-10-09T20:03:10;0.75;;;0.40;;
76121;SDS011;70471;53.200;6.080;2023-10-09T20:08:01;3.33;;;1.10;;
76121;SDS011;70471;53.200;6.080;2023-10-09T20:12:54;0.80;;;0.30;;
76121;SDS011;70471;53.200;6.080;2023-10-09T20:17:45;1.33;;;0.55;;
76121;SDS011;70471;53.200;6.080;2023-10-09T20:22:38;0.70;;;0.60;;
76121;SDS011;70471;53.200;6.080;2023-10-09T20:27:30;1.20;;;0.50;;
76121;SDS011;70471;53.200;6.080;2023-10-09T20:32:21;0.82;;;0.30;;
76121;SDS011;70471;53.200;6.080;2023-10-09T20:37:13;0.60;;;0.50;;
76121;SDS011;70471;53.200;6.080;2023-10-09T20:42:07;1.05;;;0.40;;
76121;SDS011;70471;53.200;6.080;2023-10-09T20:47:01;0.85;;;0.52;;
76121;SDS011;70471;53.200;6.080;2023-10-09T20:51:53;2.53;;;0.47;;
76121;SDS011;70471;53.200;6.080;2023-10-09T20:56:44;0.60;;;0.40;;
76121;SDS011;70471;53.200;6.080;2023-10-09T21:01:37;1.70;;;0.35;;
76121;SDS011;70471;53.200;6.080;2023-10-09T21:06:29;0.60;;;0.30;;
76121;SDS011;70471;53.200;6.080;2023-10-09T21:11:21;0.30;;;0.30;;
76121;SDS011;70471;53.200;6.080;2023-10-09T21:21:06;0.68;;;0.50;;
76121;SDS011;70471;53.200;6.080;2023-10-09T21:25:59;1.50;;;0.30;;
76121;SDS011;70471;53.200;6.080;2023-10-09T21:30:50;1.23;;;0.52;;
76121;SDS011;70471;53.200;6.080;2023-10-09T21:35:43;1.85;;;0.70;;
76121;SDS011;70471;53.200;6.080;2023-10-09T21:45:27;0.90;;;0.75;;
76121;SDS011;70471;53.200;6.080;2023-10-09T21:50:18;1.02;;;0.60;;
76121;SDS011;70471;53.200;6.080;2023-10-09T21:55:11;1.75;;;0.68;;
76121;SDS011;70471;53.200;6.080;2023-10-09T22:05:01;3.90;;;0.93;;
76121;SDS011;70471;53.200;6.080;2023-10-09T22:09:59;2.95;;;0.80;;
76121;SDS011;70471;53.200;6.080;2023-10-09T22:19:43;1.08;;;0.68;;
76121;SDS011;70471;53.200;6.080;2023-10-09T22:24:37;1.02;;;0.80;;
76121;SDS011;70471;53.200;6.080;2023-10-09T22:29:38;2.38;;;0.90;;
76121;SDS011;70471;53.200;6.080;2023-10-09T22:34:31;1.55;;;0.60;;
76121;SDS011;70471;53.200;6.080;2023-10-09T22:39:28;1.73;;;0.70;;
76121;SDS011;70471;53.200;6.080;2023-10-09T22:44:23;1.92;;;0.90;;
76121;SDS011;70471;53.200;6.080;2023-10-09T22:49:15;3.53;;;1.00;;
76121;SDS011;70471;53.200;6.080;2023-10-09T22:54:07;3.67;;;0.85;;
76121;SDS011;70471;53.200;6.080;2023-10-09T22:59:03;1.95;;;0.90;;
76121;SDS011;70471;53.200;6.080;2023-10-09T23:04:10;1.83;;;0.93;;
76121;SDS011;70471;53.200;6.080;2023-10-09T23:09:06;1.63;;;1.00;;
76121;SDS011;70471;53.200;6.080;2023-10-09T23:14:06;1.85;;;0.77;;
76121;SDS011;70471;53.200;6.080;2023-10-09T23:19:13;2.72;;;0.85;;
76121;SDS011;70471;53.200;6.080;2023-10-09T23:24:21;1.33;;;0.75;;
76121;SDS011;70471;53.200;6.080;2023-10-09T23:29:19;2.15;;;0.80;;
76121;SDS011;70471;53.200;6.080;2023-10-09T23:34:19;2.10;;;0.90;;
76121;SDS011;70471;53.200;6.080;2023-10-09T23:39:21;0.63;;;0.40;;
76121;SDS011;70471;53.200;6.080;2023-10-09T23:44:39;1.90;;;0.82;;
76121;SDS011;70471;53.200;6.080;2023-10-09T23:49:30;2.75;;;1.15;;
76121;SDS011;70471;53.200;6.080;2023-10-09T23:54:23;3.60;;;0.85;;
76121;SDS011;70471;53.200;6.080;2023-10-09T23:59:15;2.30;;;0.82;;
